Time;durP1;ratioP1;P1;durP2;ratioP2;P2;SDS_P1;SDS_P2;PMS_P1;PMS_P2;Temp;Humidity;BMP_temperature;BMP_pressure;BME280_temperature;BME280_humidity;BME280_pressure;Samples;Min_cycle;Max_cycle;Signal;HPM_P1;HPM_P2
2022/06/27 00:00:34;;;;;;;5.10;4.60;;;;;;;20.18;90.96;100544.19;5060692;28;20218;-74
2022/06/27 00:03:01;;;;;;;4.63;4.23;;;;;;;20.16;91.79;100538.16;5060166;28;20202;-75
2022/06/27 00:05:27;;;;;;;5.20;4.70;;;;;;;20.12;91.80;100537.50;5065739;28;20851;-75
2022/06/27 00:07:53;;;;;;;6.83;5.63;;;;;;;20.10;91.39;100535.91;5065372;28;20202;-75
2022/06/27 00:10:21;;;;;;;5.07;4.47;;;;;;;20.09;90.98;100537.72;5060885;28;20218;-75
2022/06/27 00:12:47;;;;;;;5.27;4.70;;;;;;;20.08;89.94;100538.63;5060738;28;20195;-74
2022/06/27 00:15:14;;;;;;;6.47;4.83;;;;;;;20.11;90.20;100535.78;5067840;28;20205;-75
2022/06/27 00:17:41;;;;;;;5.27;4.77;;;;;;;20.13;89.91;100539.19;5062341;28;20209;-75
2022/06/27 00:20:08;;;;;;;5.10;4.60;;;;;;;20.12;89.80;100537.50;5059128;28;20608;-75
2022/06/27 00:22:34;;;;;;;5.77;4.97;;;;;;;20.13;90.69;100541.84;5056487;28;20205;-75
2022/06/27 00:25:01;;;;;;;5.67;4.50;;;;;;;20.08;91.47;100541.28;5052411;28;20211;-75
2022/06/27 00:27:29;;;;;;;6.80;5.00;;;;;;;20.07;91.13;100541.38;5055471;28;20237;-74
2022/06/27 00:29:55;;;;;;;4.77;4.37;;;;;;;20.03;91.24;100535.47;5053495;28;20584;-74
2022/06/27 00:32:23;;;;;;;4.70;4.17;;;;;;;20.02;92.05;100539.06;5045519;28;20229;-75
2022/06/27 00:34:50;;;;;;;5.10;4.60;;;;;;;19.98;93.49;100541.06;5062816;28;20202;-75
2022/06/27 00:37:17;;;;;;;4.63;4.23;;;;;;;19.91;94.81;100537.16;5045272;28;20240;-75
2022/06/27 00:39:44;;;;;;;5.10;4.63;;;;;;;19.89;94.99;100535.53;5041041;28;20703;-74
2022/06/27 00:42:10;;;;;;;5.37;4.87;;;;;;;19.86;94.94;100539.25;5034712;28;20206;-75
2022/06/27 00:44:40;;;;;;;5.20;4.70;;;;;;;19.84;93.89;100547.28;5046846;28;20209;-75
2022/06/27 00:47:08;;;;;;;6.93;5.00;;;;;;;19.81;94.53;100536.91;5042011;28;20194;-75
2022/06/27 00:49:36;;;;;;;4.70;4.30;;;;;;;19.77;94.41;100546.00;5057050;28;20754;-75
2022/06/27 00:52:04;;;;;;;4.87;4.37;;;;;;;19.77;95.54;100540.72;5066213;28;20222;-74
2022/06/27 00:54:32;;;;;;;5.00;4.50;;;;;;;19.77;95.71;100551.28;5039917;28;20198;-75
2022/06/27 00:56:59;;;;;;;5.63;4.50;;;;;;;19.76;97.12;100546.09;5033779;28;20199;-74
2022/06/27 00:59:26;;;;;;;4.83;4.23;;;;;;;19.70;97.01;100543.81;5059161;28;20203;-75
2022/06/27 01:01:54;;;;;;;5.53;4.70;;;;;;;19.59;97.82;100539.22;5037514;28;20211;-75
2022/06/27 01:04:21;;;;;;;5.17;4.67;;;;;;;19.55;97.54;100535.09;5048638;28;20197;-75
2022/06/27 01:06:50;;;;;;;5.33;4.83;;;;;;;19.55;99.15;100535.94;5059530;28;20210;-75
2022/06/27 01:09:16;;;;;;;5.23;4.73;;;;;;;19.49;98.79;100536.34;5058160;28;20726;-75
2022/06/27 01:11:42;;;;;;;5.10;4.60;;;;;;;19.45;99.74;100538.34;5036731;28;20234;-75
2022/06/27 01:14:11;;;;;;;5.33;4.83;;;;;;;19.42;99.74;100541.19;5039936;28;20206;-75
2022/06/27 01:16:38;;;;;;;5.00;4.57;;;;;;;19.42;100.00;100538.53;5042796;28;20563;-74
2022/06/27 01:19:08;;;;;;;5.17;4.67;;;;;;;19.36;98.73;100543.34;5042527;28;20709;-75
2022/06/27 01:21:40;;;;;;;7.33;4.97;;;;;;;19.38;98.36;100541.47;5049572;28;20195;-75
2022/06/27 01:24:08;;;;;;;5.30;4.80;;;;;;;19.36;96.98;100530.97;5039257;28;20257;-76
2022/06/27 01:26:35;;;;;;;4.87;4.37;;;;;;;19.41;97.00;100535.97;5036573;28;20712;-75
2022/06/27 01:29:02;;;;;;;6.13;4.80;;;;;;;19.45;96.12;100537.47;5066233;28;20579;-75
2022/06/27 01:31:29;;;;;;;5.47;4.80;;;;;;;19.47;95.02;100546.16;5048245;28;20206;-74
2022/06/27 01:33:55;;;;;;;4.70;4.30;;;;;;;19.51;94.87;100544.16;5046063;28;20222;-74
2022/06/27 01:39:05;;;;;;;5.20;4.70;;;;;;;19.52;96.02;100549.34;5049326;28;20230;-75
2022/06/27 01:41:33;;;;;;;5.10;4.60;;;;;;;19.53;96.18;100539.63;5033392;28;20210;-75
2022/06/27 01:44:03;;;;;;;6.00;4.83;;;;;;;19.53;96.45;100550.22;5061595;28;20387;-74
2022/06/27 01:46:39;;;;;;;7.07;4.60;;;;;;;19.51;97.11;100549.44;5048592;28;20226;-75
2022/06/27 01:49:05;;;;;;;8.37;4.67;;;;;;;19.47;98.39;100552.31;5044236;28;20326;-75
2022/06/27 01:51:32;;;;;;;7.93;4.80;;;;;;;19.46;99.30;100562.97;5051829;28;20233;-74
2022/06/27 01:53:59;;;;;;;5.27;4.40;;;;;;;19.43;99.34;100561.34;5048584;28;20199;-74
2022/06/27 01:56:27;;;;;;;5.53;4.80;;;;;;;19.42;98.84;100564.13;5051551;28;20241;-74
2022/06/27 01:58:57;;;;;;;5.37;4.40;;;;;;;19.40;99.41;100561.56;5048833;28;20291;-74
2022/06/27 02:01:25;;;;;;;5.70;5.20;;;;;;;19.38;99.25;100566.09;5035610;28;20203;-74
2022/06/27 02:03:52;;;;;;;5.17;4.67;;;;;;;19.43;96.88;100561.34;5044102;28;20213;-75
2022/06/27 02:06:18;;;;;;;7.23;4.73;;;;;;;19.47;97.71;100559.38;5035081;28;20486;-75
2022/06/27 02:08:46;;;;;;;5.03;4.53;;;;;;;19.45;96.21;100563.91;5051124;28;20236;-75
2022/06/27 02:11:17;;;;;;;5.73;4.80;;;;;;;19.46;97.28;100569.09;5034469;28;20203;-75
2022/06/27 02:13:43;;;;;;;5.13;4.67;;;;;;;19.54;96.11;100570.41;5040870;28;20729;-75
2022/06/27 02:16:13;;;;;;;6.80;4.70;;;;;;;19.55;96.12;100569.47;5037690;28;20298;-75
2022/06/27 02:18:41;;;;;;;5.27;4.77;;;;;;;19.55;95.90;100567.66;5046026;28;20245;-75
2022/06/27 02:21:10;;;;;;;7.83;5.07;;;;;;;19.56;96.99;100564.09;5045516;28;20286;-75
2022/06/27 02:23:36;;;;;;;5.97;4.83;;;;;;;19.52;97.36;100572.28;5056485;28;20320;-75
2022/06/27 02:26:04;;;;;;;5.57;4.90;;;;;;;19.48;98.88;100569.84;5055004;28;20235;-75
2022/06/27 02:28:30;;;;;;;7.13;4.93;;;;;;;19.46;99.75;100574.38;5057398;28;20205;-75
2022/06/27 02:30:57;;;;;;;5.57;4.73;;;;;;;19.40;100.00;100573.94;5058120;28;20195;-75
2022/06/27 02:33:32;;;;;;;6.77;5.50;;;;;;;19.37;100.00;100572.34;5045057;28;20286;-75
2022/06/27 02:36:01;;;;;;;6.07;5.00;;;;;;;19.35;100.00;100570.72;5046923;28;20190;-75
2022/06/27 02:38:28;;;;;;;7.73;5.13;;;;;;;19.31;100.00;100570.06;5062831;28;20255;-75
2022/06/27 02:40:58;;;;;;;5.27;4.77;;;;;;;19.28;100.00;100573.78;5041614;28;20257;-74
2022/06/27 02:43:26;;;;;;;6.93;5.20;;;;;;;19.30;100.00;100574.53;5042263;28;20591;-74
2022/06/27 02:45:55;;;;;;;5.80;5.20;;;;;;;19.23;100.00;100575.84;5036966;28;20226;-74
2022/06/27 02:48:27;;;;;;;5.03;4.53;;;;;;;19.16;100.00;100576.34;5043100;28;20593;-74
2022/06/27 02:50:56;;;;;;;5.40;4.90;;;;;;;19.14;100.00;100579.09;5048412;28;20520;-74
2022/06/27 02:53:27;;;;;;;5.60;5.00;;;;;;;19.06;100.00;100579.53;5045030;28;20206;-75
2022/06/27 02:56:10;;;;;;;6.17;5.00;;;;;;;19.14;100.00;100578.22;5040637;28;20722;-75
2022/06/27 02:58:43;;;;;;;5.20;4.67;;;;;;;19.08;100.00;100567.13;5045144;28;20210;-75
2022/06/27 03:01:10;;;;;;;7.57;5.30;;;;;;;19.04;100.00;100585.88;5046941;28;20230;-75
2022/06/27 03:03:41;;;;;;;5.33;4.83;;;;;;;19.01;100.00;100586.06;5031459;28;20203;-74
2022/06/27 03:06:08;;;;;;;6.70;5.70;;;;;;;18.97;100.00;100587.22;5040360;28;20253;-75
2022/06/27 03:08:39;;;;;;;6.80;5.77;;;;;;;19.00;100.00;100594.97;5036077;28;20198;-75
2022/06/27 03:11:06;;;;;;;6.73;5.20;;;;;;;18.95;100.00;100589.94;5044455;28;20989;-74
2022/06/27 03:13:33;;;;;;;6.20;5.60;;;;;;;19.00;100.00;100582.59;5042144;28;20222;-75
2022/06/27 03:16:00;;;;;;;6.70;6.07;;;;;;;18.92;100.00;100583.03;5040013;28;20194;-74
2022/06/27 03:18:26;;;;;;;7.33;6.07;;;;;;;18.87;100.00;100585.16;5051341;28;20199;-74
2022/06/27 03:21:20;;;;;;;5.57;5.07;;;;;;;18.92;100.00;100576.91;5043830;28;20211;-74
2022/06/27 03:23:52;;;;;;;5.87;5.27;;;;;;;18.95;100.00;100583.81;5037904;28;20202;-75
2022/06/27 03:26:20;;;;;;;5.90;5.30;;;;;;;18.97;100.00;100582.75;5048146;28;20218;-74
2022/06/27 03:31:21;;;;;;;5.90;5.30;;;;;;;19.03;100.00;100576.25;4976317;28;20233;-75
2022/06/27 03:33:49;;;;;;;6.67;5.67;;;;;;;19.09;100.00;100576.72;4987544;28;20233;-75
2022/06/27 03:36:32;;;;;;;6.70;6.07;;;;;;;19.17;100.00;100578.91;4981502;28;20784;-75
2022/06/27 03:39:01;;;;;;;8.87;6.00;;;;;;;19.23;100.00;100577.66;4967426;28;20206;-75
2022/06/27 03:41:27;;;;;;;6.47;5.70;;;;;;;19.32;100.00;100586.81;4948577;28;20229;-75
2022/06/27 03:46:32;;;;;;;9.50;6.27;;;;;;;19.50;100.00;100582.97;5009102;28;20256;-72
2022/06/27 03:52:10;;;;;;;6.77;6.10;;;;;;;19.77;100.00;100590.97;5006160;28;20204;-72
2022/06/27 03:54:36;;;;;;;7.47;6.17;;;;;;;19.88;100.00;100589.41;4998183;28;20429;-72
2022/06/27 03:57:04;;;;;;;6.53;5.93;;;;;;;19.99;100.00;100593.03;4999141;28;20192;-73
2022/06/27 03:59:30;;;;;;;8.23;6.60;;;;;;;20.07;100.00;100589.91;5005705;28;20338;-73
2022/06/27 04:01:57;;;;;;;6.43;5.83;;;;;;;20.16;100.00;100586.63;5016108;28;20200;-72
2022/06/27 04:04:29;;;;;;;7.47;6.07;;;;;;;20.22;100.00;100588.84;4995384;28;20196;-72
2022/06/27 04:06:56;;;;;;;9.53;6.90;;;;;;;20.32;100.00;100594.38;5022770;28;20215;-72
2022/06/27 04:09:23;;;;;;;7.13;6.23;;;;;;;20.46;99.82;100597.91;5000104;28;20235;-72
2022/06/27 04:11:50;;;;;;;7.80;6.80;;;;;;;20.59;97.90;100602.22;4996006;28;20200;-71
2022/06/27 04:14:37;;;;;;;7.17;6.47;;;;;;;20.76;96.59;100589.69;5018678;28;20215;-72
2022/06/27 04:17:29;;;;;;;6.83;6.00;;;;;;;20.89;96.32;100589.66;4993291;28;20223;-72
2022/06/27 04:20:28;;;;;;;7.47;6.67;;;;;;;21.01;94.00;100594.09;5010327;28;20586;-72
2022/06/27 04:22:58;;;;;;;7.97;6.70;;;;;;;21.12;94.40;100596.00;5000805;28;20213;-72
2022/06/27 04:25:45;;;;;;;8.37;6.37;;;;;;;21.26;92.67;100595.84;5010413;28;20203;-72
2022/06/27 04:28:12;;;;;;;7.80;6.67;;;;;;;21.37;91.16;100597.72;4997628;28;20200;-71
2022/06/27 04:30:40;;;;;;;10.17;6.40;;;;;;;21.54;90.31;100600.03;5003737;28;20228;-71
2022/06/27 04:33:07;;;;;;;6.93;6.23;;;;;;;21.71;88.79;100596.16;5005660;28;20206;-72
2022/06/27 04:35:34;;;;;;;7.33;6.23;;;;;;;21.83;88.04;100597.06;4997902;28;20690;-71
2022/06/27 04:38:01;;;;;;;8.77;6.37;;;;;;;21.99;86.43;100596.78;4998841;28;20189;-71
2022/06/27 04:40:47;;;;;;;6.57;5.80;;;;;;;22.10;84.68;100595.97;4999205;28;20584;-71
2022/06/27 04:43:14;;;;;;;8.43;6.63;;;;;;;22.22;84.25;100595.03;4993507;28;20207;-72
2022/06/27 04:45:41;;;;;;;8.30;6.47;;;;;;;22.29;84.48;100598.13;5019210;28;20218;-71
2022/06/27 04:48:18;;;;;;;7.63;6.33;;;;;;;22.34;83.24;100595.97;4990745;28;20692;-71
2022/06/27 04:50:45;;;;;;;9.07;6.20;;;;;;;22.38;83.01;100594.75;4987336;28;20546;-72
2022/06/27 04:53:12;;;;;;;7.63;6.83;;;;;;;22.46;82.61;100588.84;5005339;28;20208;-71
2022/06/27 04:55:39;;;;;;;7.63;6.47;;;;;;;22.55;82.31;100597.91;5019606;28;20664;-72
2022/06/27 04:58:06;;;;;;;7.97;6.27;;;;;;;22.64;81.77;100597.25;4997948;28;20201;-71
2022/06/27 05:00:36;;;;;;;8.00;7.30;;;;;;;22.76;82.76;100590.09;4995194;28;20278;-72
2022/06/27 05:03:23;;;;;;;8.30;6.68;;;;;;;22.91;81.58;100591.56;5014070;28;20223;-71
2022/06/27 05:06:00;;;;;;;7.50;6.10;;;;;;;23.01;81.79;100603.16;5011165;28;20207;-71
2022/06/27 05:08:26;;;;;;;7.22;6.53;;;;;;;23.09;79.82;100602.59;5013594;28;20294;-71
2022/06/27 05:10:57;;;;;;;7.38;6.68;;;;;;;23.19;78.88;100600.88;4994803;28;20315;-71
2022/06/27 05:13:25;;;;;;;9.70;7.15;;;;;;;23.28;79.22;100601.13;4999154;28;20203;-71
2022/06/27 05:15:52;;;;;;;10.02;7.70;;;;;;;23.40;79.55;100594.81;5003743;28;20212;-71
2022/06/27 05:18:19;;;;;;;7.07;6.45;;;;;;;23.48;79.78;100597.69;5024839;28;20742;-72
2022/06/27 05:20:47;;;;;;;7.68;6.50;;;;;;;23.59;78.22;100591.53;5014394;28;20247;-71
2022/06/27 05:23:13;;;;;;;10.50;7.38;;;;;;;23.70;77.02;100595.97;5011274;28;20200;-71
2022/06/27 05:25:41;;;;;;;7.03;6.15;;;;;;;23.78;76.62;100590.84;5000732;28;20533;-72
2022/06/27 05:28:08;;;;;;;6.93;6.22;;;;;;;23.90;79.27;100591.69;5000845;28;20299;-71
2022/06/27 05:30:35;;;;;;;6.80;6.13;;;;;;;23.90;76.55;100600.50;5014766;28;20228;-71
2022/06/27 05:33:03;;;;;;;6.75;5.93;;;;;;;23.96;74.71;100602.69;5003016;28;20197;-71
2022/06/27 05:35:30;;;;;;;6.80;5.93;;;;;;;24.05;74.73;100595.75;4999901;28;20200;-72
2022/06/27 05:37:57;;;;;;;7.20;6.50;;;;;;;24.17;75.31;100600.03;5017926;28;20207;-71
2022/06/27 05:40:24;;;;;;;6.35;5.72;;;;;;;24.28;75.52;100603.63;4998299;28;20307;-72
2022/06/27 05:42:53;;;;;;;7.15;5.75;;;;;;;24.39;75.61;100598.22;5016150;28;20234;-72
2022/06/27 05:45:20;;;;;;;6.57;5.63;;;;;;;24.52;74.25;100601.53;5011029;28;20236;-71
2022/06/27 05:48:09;;;;;;;6.75;6.10;;;;;;;24.72;73.37;100607.84;5016706;28;20236;-71
2022/06/27 05:50:42;;;;;;;5.75;5.13;;;;;;;24.85;72.87;100604.13;5014114;28;20274;-71
2022/06/27 05:53:09;;;;;;;5.60;5.07;;;;;;;24.97;70.39;100613.72;5004439;28;20209;-71
2022/06/27 05:55:37;;;;;;;7.00;5.10;;;;;;;25.10;70.46;100616.16;4999153;28;20254;-71
2022/06/27 05:58:04;;;;;;;5.68;5.18;;;;;;;25.23;71.51;100614.09;5002232;28;20563;-71
2022/06/27 06:00:31;;;;;;;6.53;4.95;;;;;;;25.31;70.00;100624.97;5013154;28;20307;-71
2022/06/27 06:02:59;;;;;;;5.32;4.82;;;;;;;25.39;70.33;100626.97;4998308;28;20204;-71
2022/06/27 06:05:28;;;;;;;6.05;4.90;;;;;;;25.54;69.29;100627.44;5016573;28;20585;-70
2022/06/27 06:07:59;;;;;;;4.75;4.35;;;;;;;25.72;66.65;100630.25;4994799;28;20308;-71
2022/06/27 06:10:26;;;;;;;5.50;4.90;;;;;;;25.88;66.19;100633.22;4994631;28;20315;-71
2022/06/27 06:12:52;;;;;;;7.60;4.05;;;;;;;25.98;65.23;100629.75;4995222;28;20208;-71
2022/06/27 06:15:19;;;;;;;5.40;4.65;;;;;;;26.10;66.16;100628.63;5010764;28;20189;-71
2022/06/27 06:17:46;;;;;;;4.70;4.30;;;;;;;26.18;66.19;100628.75;5015545;28;20197;-71
2022/06/27 06:20:12;;;;;;;4.82;4.40;;;;;;;26.41;66.22;100623.94;4993245;28;20221;-71
2022/06/27 06:22:41;;;;;;;5.50;4.40;;;;;;;26.54;62.58;100623.66;5014081;28;20212;-71
2022/06/27 06:25:08;;;;;;;4.13;3.75;;;;;;;26.70;61.70;100630.25;4995078;28;20601;-71
2022/06/27 06:27:35;;;;;;;4.35;3.90;;;;;;;26.81;61.57;100630.94;4991409;28;20236;-71
2022/06/27 06:30:02;;;;;;;3.90;3.60;;;;;;;26.95;59.96;100626.13;5008353;28;20221;-71
2022/06/27 06:32:31;;;;;;;4.03;3.70;;;;;;;26.96;59.81;100625.94;5012909;28;20196;-71
2022/06/27 06:34:58;;;;;;;3.80;3.50;;;;;;;27.14;58.33;100623.34;4996149;28;20243;-71
2022/06/27 06:37:26;;;;;;;4.00;3.70;;;;;;;27.26;59.04;100615.94;4991412;28;20707;-71
2022/06/27 06:39:54;;;;;;;3.80;3.50;;;;;;;27.32;59.21;100615.41;4998019;28;20231;-71
2022/06/27 06:42:21;;;;;;;3.80;3.45;;;;;;;27.44;57.61;100615.19;5013105;28;20209;-71
2022/06/27 06:44:58;;;;;;;3.72;3.38;;;;;;;27.64;56.47;100614.06;4996302;28;20266;-71
2022/06/27 06:47:33;;;;;;;3.95;3.55;;;;;;;27.85;56.87;100619.16;4994001;28;20305;-72
2022/06/27 06:50:07;;;;;;;3.65;3.35;;;;;;;27.97;55.97;100619.78;4997640;28;20216;-71
2022/06/27 06:52:34;;;;;;;3.50;3.20;;;;;;;28.17;55.64;100616.94;5014398;28;20200;-72
2022/06/27 06:55:02;;;;;;;3.40;3.10;;;;;;;28.35;55.41;100615.06;5014759;28;20282;-71
2022/06/27 06:57:29;;;;;;;3.45;3.00;;;;;;;28.43;53.46;100616.97;5011670;28;20189;-71
2022/06/27 06:59:55;;;;;;;4.80;3.55;;;;;;;28.55;54.42;100621.13;5021009;28;20611;-71
2022/06/27 07:02:22;;;;;;;3.75;2.65;;;;;;;28.72;51.60;100619.38;5008825;28;20200;-71
2022/06/27 07:04:49;;;;;;;2.83;2.50;;;;;;;28.73;53.30;100620.22;5017353;28;20204;-71
2022/06/27 07:07:19;;;;;;;2.45;2.25;;;;;;;28.73;52.03;100612.19;5006757;28;20697;-71
2022/06/27 07:09:45;;;;;;;3.20;2.90;;;;;;;28.67;51.66;100611.81;5004794;28;20689;-71
2022/06/27 07:12:13;;;;;;;2.78;2.50;;;;;;;28.77;50.83;100617.03;5010643;28;20203;-70
2022/06/27 07:14:39;;;;;;;2.97;2.70;;;;;;;28.89;51.97;100610.41;5014255;28;20731;-71
2022/06/27 07:17:07;;;;;;;3.47;3.15;;;;;;;28.91;51.32;100609.41;5014054;28;20204;-71
2022/06/27 07:19:33;;;;;;;3.17;2.53;;;;;;;28.94;51.60;100609.94;5006606;28;20227;-71
2022/06/27 07:22:01;;;;;;;3.60;2.65;;;;;;;29.00;50.24;100600.41;5008010;28;20197;-71
2022/06/27 07:24:27;;;;;;;2.80;2.50;;;;;;;28.96;49.35;100599.88;5006749;28;20871;-71
2022/06/27 07:26:55;;;;;;;2.70;2.20;;;;;;;29.03;47.47;100600.09;5005645;28;20196;-70
2022/06/27 07:29:23;;;;;;;3.05;2.10;;;;;;;29.07;46.76;100596.91;5013723;28;20216;-72
2022/06/27 07:31:50;;;;;;;2.33;2.10;;;;;;;29.12;46.47;100604.47;5007668;28;20684;-72
2022/06/27 07:34:19;;;;;;;2.92;2.50;;;;;;;29.18;49.02;100594.97;5009767;28;20580;-71
2022/06/27 07:36:46;;;;;;;3.50;2.30;;;;;;;29.24;48.15;100589.78;5013528;28;20209;-71
2022/06/27 07:39:12;;;;;;;4.20;2.28;;;;;;;29.31;47.06;100592.66;5007232;28;20204;-71
2022/06/27 07:41:39;;;;;;;3.90;2.20;;;;;;;29.39;48.08;100591.84;5008944;28;20637;-72
2022/06/27 07:44:06;;;;;;;3.58;2.22;;;;;;;29.55;47.33;100586.53;5017624;28;20604;-72
2022/06/27 07:46:35;;;;;;;4.32;2.10;;;;;;;29.67;45.72;100594.25;5008884;28;20300;-71
2022/06/27 07:49:02;;;;;;;2.90;2.45;;;;;;;29.78;46.96;100594.81;5010888;28;20318;-72
2022/06/27 07:51:29;;;;;;;2.58;2.33;;;;;;;29.72;46.27;100592.75;5011161;28;20196;-72
2022/06/27 07:53:55;;;;;;;2.70;2.50;;;;;;;29.86;45.73;100593.13;5008317;28;20700;-71
2022/06/27 07:56:23;;;;;;;2.38;2.10;;;;;;;29.98;44.73;100587.25;5007129;28;20211;-71
2022/06/27 07:58:49;;;;;;;2.25;2.10;;;;;;;30.11;43.89;100585.91;5008717;28;20208;-72
2022/06/27 08:01:19;;;;;;;2.85;2.58;;;;;;;30.22;44.55;100582.91;5020927;28;20236;-71
2022/06/27 08:03:49;;;;;;;3.90;2.40;;;;;;;30.26;44.84;100581.53;5009616;28;20577;-72
2022/06/27 08:06:20;;;;;;;2.95;2.15;;;;;;;30.41;44.04;100591.63;5011166;28;20665;-71
2022/06/27 08:08:48;;;;;;;5.63;2.40;;;;;;;30.50;42.72;100587.91;5017855;28;20260;-72
2022/06/27 08:11:17;;;;;;;2.53;2.33;;;;;;;30.71;42.39;100593.59;5008425;28;20319;-71
2022/06/27 08:13:45;;;;;;;4.43;2.70;;;;;;;30.82;42.47;100595.06;5010512;28;20561;-72
2022/06/27 08:16:14;;;;;;;2.75;2.47;;;;;;;30.82;42.71;100592.38;5006354;28;20665;-71
2022/06/27 08:18:41;;;;;;;2.45;2.25;;;;;;;30.85;41.63;100599.25;5000519;28;20205;-71
2022/06/27 08:21:10;;;;;;;3.00;2.60;;;;;;;30.99;42.26;100589.66;5012349;28;20224;-72
2022/06/27 08:23:37;;;;;;;2.78;2.58;;;;;;;30.98;41.56;100596.88;5012397;28;20204;-71
2022/06/27 08:26:07;;;;;;;3.05;2.58;;;;;;;30.95;43.01;100567.63;5017016;28;20626;-71
2022/06/27 08:28:35;;;;;;;2.65;2.45;;;;;;;30.99;42.89;100568.09;5016319;28;20224;-72
2022/06/27 08:31:02;;;;;;;2.47;2.28;;;;;;;31.07;41.00;100574.28;5007086;28;20223;-72
2022/06/27 08:33:28;;;;;;;2.85;2.28;;;;;;;31.19;40.17;100571.19;5006385;28;20204;-71
2022/06/27 08:35:56;;;;;;;2.90;2.53;;;;;;;31.27;39.87;100579.25;5015241;28;20288;-72
2022/06/27 08:38:25;;;;;;;4.05;2.40;;;;;;;31.38;39.95;100580.69;5012330;28;20664;-71
2022/06/27 08:40:53;;;;;;;2.25;2.13;;;;;;;31.39;40.96;100577.00;5016007;28;20235;-72
2022/06/27 08:43:20;;;;;;;2.67;2.47;;;;;;;31.40;41.20;100568.75;5013878;28;20208;-72
2022/06/27 08:45:48;;;;;;;2.92;2.40;;;;;;;31.51;40.54;100570.22;5010218;28;20205;-71
2022/06/27 08:48:15;;;;;;;2.50;2.30;;;;;;;31.52;40.80;100561.97;5013413;28;20223;-72
2022/06/27 08:50:42;;;;;;;3.40;2.50;;;;;;;31.52;40.98;100551.19;5013250;28;20255;-72
2022/06/27 08:53:12;;;;;;;2.60;2.40;;;;;;;31.57;41.01;100556.00;5007945;28;20307;-72
2022/06/27 08:55:44;;;;;;;2.53;2.17;;;;;;;31.67;39.62;100551.22;5014241;28;20204;-72
2022/06/27 08:58:11;;;;;;;2.50;2.30;;;;;;;31.81;38.22;100556.88;5017625;28;20611;-72
2022/06/27 09:00:40;;;;;;;2.75;2.55;;;;;;;31.85;38.77;100552.78;5016882;28;20238;-71
2022/06/27 09:03:07;;;;;;;2.33;2.13;;;;;;;31.94;38.96;100554.38;5013334;28;20207;-72
2022/06/27 09:05:36;;;;;;;2.80;2.33;;;;;;;32.06;38.26;100558.34;5015315;28;20203;-71
2022/06/27 09:08:04;;;;;;;3.55;2.00;;;;;;;32.12;37.69;100564.88;5017394;28;20689;-72
2022/06/27 09:10:33;;;;;;;2.97;2.05;;;;;;;32.08;38.26;100559.03;5006978;28;20225;-71
2022/06/27 09:13:02;;;;;;;2.67;2.30;;;;;;;32.11;38.37;100544.31;4986574;28;20255;-72
2022/06/27 09:15:45;;;;;;;2.22;2.03;;;;;;;32.14;39.06;100545.81;5017444;28;20728;-72
2022/06/27 09:18:13;;;;;;;3.17;2.60;;;;;;;32.21;38.75;100544.91;5007326;28;20196;-72
2022/06/27 09:20:49;;;;;;;2.15;2.00;;;;;;;32.43;37.99;100553.94;5016937;28;20222;-72
2022/06/27 09:23:28;;;;;;;2.40;2.20;;;;;;;32.49;38.21;100560.47;5013539;28;20200;-72
2022/06/27 09:25:59;;;;;;;2.35;2.10;;;;;;;32.67;37.36;100559.28;5007013;28;20197;-71
2022/06/27 09:28:51;;;;;;;2.50;2.30;;;;;;;32.74;35.80;100552.13;5013449;28;20511;-72
2022/06/27 09:31:36;;;;;;;2.28;2.05;;;;;;;32.79;38.31;100547.81;5010991;28;20558;-71
2022/06/27 09:34:08;;;;;;;2.70;2.30;;;;;;;32.86;36.94;100541.66;5005915;28;20208;-71
2022/06/27 09:36:36;;;;;;;2.45;2.25;;;;;;;32.85;35.98;100540.00;5014863;28;20200;-71
2022/06/27 09:39:04;;;;;;;3.92;2.40;;;;;;;32.95;35.83;100545.94;5009318;28;20259;-71
2022/06/27 09:41:30;;;;;;;2.83;2.55;;;;;;;33.00;36.82;100540.81;5005452;28;20566;-71
2022/06/27 09:44:06;;;;;;;2.38;2.17;;;;;;;33.12;35.30;100547.41;5017598;28;20204;-71
2022/06/27 09:46:38;;;;;;;4.47;2.10;;;;;;;33.08;36.43;100538.00;5019120;28;20563;-71
2022/06/27 09:49:07;;;;;;;3.25;2.53;;;;;;;33.02;35.81;100538.75;5011973;28;20208;-72
2022/06/27 09:51:35;;;;;;;2.10;2.00;;;;;;;33.05;34.70;100524.88;5018579;28;20208;-71
2022/06/27 09:54:08;;;;;;;2.38;2.00;;;;;;;33.13;34.72;100538.28;5017842;28;20196;-72
2022/06/27 09:56:36;;;;;;;2.63;2.10;;;;;;;33.16;34.88;100537.09;5011680;28;20219;-71
2022/06/27 09:59:05;;;;;;;1.90;1.80;;;;;;;33.22;33.78;100530.09;5008403;28;20200;-71
2022/06/27 10:01:32;;;;;;;2.22;2.00;;;;;;;33.14;35.33;100525.63;5014075;28;20204;-71
2022/06/27 10:04:00;;;;;;;2.03;1.92;;;;;;;33.26;35.58;100534.91;5018196;28;20215;-72
2022/06/27 10:06:29;;;;;;;2.45;2.20;;;;;;;33.44;34.84;100536.31;5013686;28;20205;-72
2022/06/27 10:08:56;;;;;;;4.47;2.47;;;;;;;33.49;34.90;100532.03;5019528;28;20225;-71
2022/06/27 10:11:23;;;;;;;3.85;2.20;;;;;;;33.47;34.71;100525.97;5009682;28;20197;-72
2022/06/27 10:14:14;;;;;;;2.25;2.05;;;;;;;33.32;34.72;100526.03;5011518;28;20829;-71
2022/06/27 10:16:52;;;;;;;2.63;2.10;;;;;;;33.26;35.43;100521.38;5012191;28;20212;-71
2022/06/27 10:19:18;;;;;;;2.50;2.30;;;;;;;33.27;35.12;100514.97;5017077;28;20263;-71
2022/06/27 10:21:47;;;;;;;2.03;1.90;;;;;;;33.37;35.61;100517.38;5013162;28;20215;-71
2022/06/27 10:24:32;;;;;;;4.88;2.15;;;;;;;33.66;35.33;100527.22;5020014;28;20291;-71
2022/06/27 10:27:00;;;;;;;2.45;2.08;;;;;;;33.75;34.28;100522.50;5015850;28;20522;-71
2022/06/27 10:29:41;;;;;;;3.30;1.98;;;;;;;33.76;33.03;100516.91;5020236;28;20560;-71
2022/06/27 10:32:29;;;;;;;2.28;2.10;;;;;;;33.83;34.00;100506.16;5007635;28;20217;-71
2022/06/27 10:35:24;;;;;;;2.10;2.00;;;;;;;33.86;34.12;100508.47;5013181;28;20207;-71
2022/06/27 10:37:50;;;;;;;2.60;2.35;;;;;;;33.86;34.25;100502.22;4973421;28;20308;-72
2022/06/27 10:40:51;;;;;;;2.35;2.15;;;;;;;33.91;33.02;100503.31;5012337;28;20720;-72
2022/06/27 10:43:38;;;;;;;2.33;2.10;;;;;;;34.04;31.85;100493.63;5013498;28;20208;-71
2022/06/27 10:46:43;;;;;;;1.90;1.80;;;;;;;34.18;32.71;100486.41;5023558;28;20286;-70
2022/06/27 10:49:21;;;;;;;2.20;1.92;;;;;;;34.10;33.33;100488.25;5015467;28;20554;-71
2022/06/27 10:51:47;;;;;;;2.00;1.80;;;;;;;34.09;33.95;100497.41;5020209;28;20580;-71
2022/06/27 10:54:14;;;;;;;5.10;2.00;;;;;;;34.20;33.24;100487.13;5015491;28;20208;-71
2022/06/27 10:56:44;;;;;;;2.00;1.90;;;;;;;34.18;32.36;100489.13;5019518;28;20208;-71
2022/06/27 11:00:03;;;;;;;1.80;1.70;;;;;;;34.24;31.95;100486.50;5010396;28;20683;-72
2022/06/27 11:02:33;;;;;;;2.97;2.10;;;;;;;34.46;32.65;100486.41;5008407;28;20205;-72
2022/06/27 11:05:00;;;;;;;2.00;1.90;;;;;;;34.46;32.51;100472.88;5004540;28;20530;-71
2022/06/27 11:07:28;;;;;;;2.45;2.25;;;;;;;34.47;33.03;100479.97;5012228;28;20711;-71
2022/06/27 11:09:54;;;;;;;1.80;1.70;;;;;;;34.47;33.30;100474.56;5017773;28;20212;-71
2022/06/27 11:12:28;;;;;;;2.38;2.17;;;;;;;34.52;31.31;100482.91;5010872;28;20665;-72
2022/06/27 11:14:57;;;;;;;2.60;2.00;;;;;;;34.52;31.00;100472.91;5019572;28;20689;-71
2022/06/27 11:17:41;;;;;;;1.90;1.77;;;;;;;34.59;31.34;100470.22;5002394;28;20208;-71
2022/06/27 11:20:23;;;;;;;2.17;1.73;;;;;;;34.50;31.82;100466.88;5016743;28;20224;-72
2022/06/27 11:22:52;;;;;;;1.90;1.70;;;;;;;34.56;32.07;100467.94;5011519;28;20551;-71
2022/06/27 11:25:23;;;;;;;1.95;1.73;;;;;;;34.54;30.70;100464.59;5016566;28;20196;-71
2022/06/27 11:27:53;;;;;;;3.25;1.92;;;;;;;34.71;30.48;100467.81;5010663;28;20196;-71
2022/06/27 11:33:25;;;;;;;2.17;2.08;;;;;;;34.85;32.25;100450.56;5024270;28;20199;-72
2022/06/27 11:35:53;;;;;;;2.30;2.10;;;;;;;34.81;31.39;100459.31;5020551;28;20720;-71
2022/06/27 11:38:24;;;;;;;3.13;1.70;;;;;;;34.84;31.61;100453.47;5009417;28;20688;-72
2022/06/27 11:41:05;;;;;;;2.08;1.88;;;;;;;34.97;31.09;100463.50;5008027;28;20592;-72
2022/06/27 11:43:48;;;;;;;3.90;1.92;;;;;;;35.17;30.94;100455.44;5003959;28;20213;-71
2022/06/27 11:46:22;;;;;;;2.25;1.63;;;;;;;35.24;29.69;100459.84;5008703;28;20303;-71
2022/06/27 11:48:58;;;;;;;3.45;1.73;;;;;;;35.34;29.28;100459.44;5012373;28;20227;-71
2022/06/27 11:51:26;;;;;;;1.70;1.60;;;;;;;35.29;29.73;100440.28;5009615;28;20211;-72